sensor_id;sensor_type;location;lat;lon;timestamp;P1;durP1;ratioP1;P2;durP2;ratioP2
15624;SDS011;7912;51.376;6.126;2023-02-24T00:00:09;12.63;;;4.13;;
15624;SDS011;7912;51.376;6.126;2023-02-24T00:02:58;9.60;;;3.33;;
15624;SDS011;7912;51.376;6.126;2023-02-24T00:05:37;7.63;;;2.97;;
15624;SDS011;7912;51.376;6.126;2023-02-24T00:08:05;15.03;;;4.07;;
15624;SDS011;7912;51.376;6.126;2023-02-24T00:10:32;12.40;;;3.80;;
15624;SDS011;7912;51.376;6.126;2023-02-24T00:12:59;11.53;;;3.57;;
15624;SDS011;7912;51.376;6.126;2023-02-24T00:15:27;11.27;;;3.10;;
15624;SDS011;7912;51.376;6.126;2023-02-24T00:17:54;10.77;;;3.37;;
15624;SDS011;7912;51.376;6.126;2023-02-24T00:20:23;13.93;;;4.70;;
15624;SDS011;7912;51.376;6.126;2023-02-24T00:22:50;8.70;;;3.47;;
15624;SDS011;7912;51.376;6.126;2023-02-24T00:25:18;13.10;;;3.97;;
15624;SDS011;7912;51.376;6.126;2023-02-24T00:27:45;10.53;;;3.97;;
15624;SDS011;7912;51.376;6.126;2023-02-24T00:30:12;13.43;;;4.07;;
15624;SDS011;7912;51.376;6.126;2023-02-24T00:32:40;13.30;;;4.30;;
15624;SDS011;7912;51.376;6.126;2023-02-24T00:35:07;11.67;;;4.00;;
15624;SDS011;7912;51.376;6.126;2023-02-24T00:37:35;14.73;;;4.00;;
15624;SDS011;7912;51.376;6.126;2023-02-24T00:40:02;13.53;;;4.83;;
15624;SDS011;7912;51.376;6.126;2023-02-24T00:42:36;13.30;;;4.03;;
15624;SDS011;7912;51.376;6.126;2023-02-24T00:45:05;9.97;;;3.73;;
15624;SDS011;7912;51.376;6.126;2023-02-24T00:47:36;10.20;;;4.10;;
15624;SDS011;7912;51.376;6.126;2023-02-24T00:50:05;12.90;;;4.57;;
15624;SDS011;7912;51.376;6.126;2023-02-24T00:52:33;12.00;;;4.60;;
15624;SDS011;7912;51.376;6.126;2023-02-24T00:55:02;13.47;;;4.07;;
15624;SDS011;7912;51.376;6.126;2023-02-24T00:57:39;16.33;;;4.83;;
15624;SDS011;7912;51.376;6.126;2023-02-24T01:00:07;16.50;;;4.60;;
15624;SDS011;7912;51.376;6.126;2023-02-24T01:02:42;13.03;;;4.43;;
15624;SDS011;7912;51.376;6.126;2023-02-24T01:05:13;13.63;;;4.43;;
15624;SDS011;7912;51.376;6.126;2023-02-24T01:07:40;14.20;;;4.13;;
15624;SDS011;7912;51.376;6.126;2023-02-24T01:10:08;14.97;;;4.13;;
15624;SDS011;7912;51.376;6.126;2023-02-24T01:15:24;14.03;;;4.33;;
15624;SDS011;7912;51.376;6.126;2023-02-24T01:17:52;10.50;;;3.97;;
15624;SDS011;7912;51.376;6.126;2023-02-24T01:20:19;14.40;;;3.87;;
15624;SDS011;7912;51.376;6.126;2023-02-24T01:22:48;14.60;;;4.57;;
15624;SDS011;7912;51.376;6.126;2023-02-24T01:25:18;19.20;;;5.07;;
15624;SDS011;7912;51.376;6.126;2023-02-24T01:27:46;14.73;;;4.37;;
15624;SDS011;7912;51.376;6.126;2023-02-24T01:30:13;13.07;;;4.50;;
15624;SDS011;7912;51.376;6.126;2023-02-24T01:32:42;12.67;;;4.87;;
15624;SDS011;7912;51.376;6.126;2023-02-24T01:35:12;14.80;;;4.63;;
15624;SDS011;7912;51.376;6.126;2023-02-24T01:37:39;14.87;;;4.50;;
15624;SDS011;7912;51.376;6.126;2023-02-24T01:40:09;13.10;;;4.70;;
15624;SDS011;7912;51.376;6.126;2023-02-24T01:42:44;16.73;;;4.73;;
15624;SDS011;7912;51.376;6.126;2023-02-24T01:45:14;10.67;;;4.20;;
15624;SDS011;7912;51.376;6.126;2023-02-24T01:47:47;16.30;;;4.80;;
15624;SDS011;7912;51.376;6.126;2023-02-24T01:50:16;16.27;;;5.10;;
15624;SDS011;7912;51.376;6.126;2023-02-24T01:52:47;14.80;;;4.83;;
15624;SDS011;7912;51.376;6.126;2023-02-24T01:57:54;14.40;;;4.87;;
15624;SDS011;7912;51.376;6.126;2023-02-24T02:00:24;13.27;;;4.57;;
15624;SDS011;7912;51.376;6.126;2023-02-24T02:03:10;15.53;;;5.70;;
15624;SDS011;7912;51.376;6.126;2023-02-24T02:06:00;13.63;;;5.00;;
15624;SDS011;7912;51.376;6.126;2023-02-24T02:08:33;15.53;;;4.63;;
15624;SDS011;7912;51.376;6.126;2023-02-24T02:11:11;16.17;;;4.80;;
15624;SDS011;7912;51.376;6.126;2023-02-24T02:13:48;16.00;;;5.10;;
15624;SDS011;7912;51.376;6.126;2023-02-24T02:19:24;14.37;;;4.10;;
15624;SDS011;7912;51.376;6.126;2023-02-24T02:42:28;12.93;;;4.53;;
15624;SDS011;7912;51.376;6.126;2023-02-24T02:47:38;13.57;;;4.20;;
15624;SDS011;7912;51.376;6.126;2023-02-24T02:50:24;10.97;;;3.77;;
15624;SDS011;7912;51.376;6.126;2023-02-24T02:53:17;14.97;;;4.63;;
15624;SDS011;7912;51.376;6.126;2023-02-24T02:55:59;11.67;;;3.90;;
15624;SDS011;7912;51.376;6.126;2023-02-24T02:58:39;13.13;;;3.73;;
15624;SDS011;7912;51.376;6.126;2023-02-24T03:01:16;11.27;;;4.53;;
15624;SDS011;7912;51.376;6.126;2023-02-24T03:03:52;12.20;;;4.30;;
15624;SDS011;7912;51.376;6.126;2023-02-24T03:06:28;8.67;;;3.73;;
15624;SDS011;7912;51.376;6.126;2023-02-24T03:09:07;12.30;;;4.10;;
15624;SDS011;7912;51.376;6.126;2023-02-24T03:11:42;7.57;;;3.23;;
15624;SDS011;7912;51.376;6.126;2023-02-24T03:14:15;11.23;;;4.37;;
15624;SDS011;7912;51.376;6.126;2023-02-24T03:16:48;9.47;;;3.80;;
15624;SDS011;7912;51.376;6.126;2023-02-24T03:19:20;8.97;;;3.87;;
15624;SDS011;7912;51.376;6.126;2023-02-24T03:21:58;11.93;;;3.87;;
15624;SDS011;7912;51.376;6.126;2023-02-24T03:24:32;9.93;;;3.80;;
15624;SDS011;7912;51.376;6.126;2023-02-24T03:29:42;9.70;;;3.57;;
15624;SDS011;7912;51.376;6.126;2023-02-24T03:35:00;13.60;;;4.00;;
15624;SDS011;7912;51.376;6.126;2023-02-24T03:37:42;11.67;;;3.90;;
15624;SDS011;7912;51.376;6.126;2023-02-24T03:40:13;10.43;;;3.70;;
15624;SDS011;7912;51.376;6.126;2023-02-24T03:42:42;8.47;;;4.30;;
15624;SDS011;7912;51.376;6.126;2023-02-24T03:45:15;10.10;;;3.43;;
15624;SDS011;7912;51.376;6.126;2023-02-24T03:47:44;10.87;;;4.00;;
15624;SDS011;7912;51.376;6.126;2023-02-24T03:50:12;10.53;;;4.60;;
15624;SDS011;7912;51.376;6.126;2023-02-24T03:52:49;12.07;;;4.50;;
15624;SDS011;7912;51.376;6.126;2023-02-24T04:04:15;12.80;;;4.00;;
15624;SDS011;7912;51.376;6.126;2023-02-24T04:10:06;14.07;;;4.33;;
15624;SDS011;7912;51.376;6.126;2023-02-24T04:12:54;9.87;;;3.97;;
15624;SDS011;7912;51.376;6.126;2023-02-24T04:15:52;12.37;;;4.20;;
15624;SDS011;7912;51.376;6.126;2023-02-24T04:18:28;8.77;;;3.30;;
15624;SDS011;7912;51.376;6.126;2023-02-24T04:20:58;8.83;;;3.53;;
15624;SDS011;7912;51.376;6.126;2023-02-24T04:23:38;11.20;;;3.80;;
15624;SDS011;7912;51.376;6.126;2023-02-24T04:26:10;7.77;;;3.43;;
15624;SDS011;7912;51.376;6.126;2023-02-24T04:28:42;10.10;;;3.60;;
15624;SDS011;7912;51.376;6.126;2023-02-24T04:31:14;10.07;;;3.87;;
15624;SDS011;7912;51.376;6.126;2023-02-24T04:33:46;10.43;;;4.13;;
15624;SDS011;7912;51.376;6.126;2023-02-24T04:36:19;13.70;;;3.60;;
15624;SDS011;7912;51.376;6.126;2023-02-24T04:38:47;10.97;;;3.83;;
15624;SDS011;7912;51.376;6.126;2023-02-24T04:41:15;14.80;;;4.63;;
15624;SDS011;7912;51.376;6.126;2023-02-24T04:43:47;10.80;;;3.50;;
15624;SDS011;7912;51.376;6.126;2023-02-24T04:46:18;9.73;;;3.60;;
15624;SDS011;7912;51.376;6.126;2023-02-24T04:48:45;10.60;;;3.77;;
15624;SDS011;7912;51.376;6.126;2023-02-24T04:51:13;10.10;;;4.07;;
15624;SDS011;7912;51.376;6.126;2023-02-24T04:53:40;7.97;;;3.30;;
15624;SDS011;7912;51.376;6.126;2023-02-24T04:56:07;15.40;;;4.23;;
15624;SDS011;7912;51.376;6.126;2023-02-24T04:58:36;7.73;;;3.60;;
15624;SDS011;7912;51.376;6.126;2023-02-24T05:01:09;10.07;;;3.87;;
15624;SDS011;7912;51.376;6.126;2023-02-24T05:03:37;10.10;;;3.97;;
15624;SDS011;7912;51.376;6.126;2023-02-24T05:06:12;9.03;;;3.07;;
15624;SDS011;7912;51.376;6.126;2023-02-24T05:08:42;8.67;;;3.57;;
15624;SDS011;7912;51.376;6.126;2023-02-24T05:11:14;9.23;;;3.57;;
15624;SDS011;7912;51.376;6.126;2023-02-24T05:13:44;6.70;;;3.40;;
15624;SDS011;7912;51.376;6.126;2023-02-24T05:16:15;9.37;;;3.60;;
15624;SDS011;7912;51.376;6.126;2023-02-24T05:18:45;8.87;;;3.33;;
15624;SDS011;7912;51.376;6.126;2023-02-24T05:21:14;8.07;;;3.20;;
15624;SDS011;7912;51.376;6.126;2023-02-24T05:24:01;7.60;;;3.13;;
15624;SDS011;7912;51.376;6.126;2023-02-24T05:26:37;8.63;;;3.60;;
15624;SDS011;7912;51.376;6.126;2023-02-24T05:29:07;9.53;;;3.77;;
15624;SDS011;7912;51.376;6.126;2023-02-24T05:31:37;10.03;;;3.97;;
15624;SDS011;7912;51.376;6.126;2023-02-24T05:34:05;10.07;;;3.20;;
15624;SDS011;7912;51.376;6.126;2023-02-24T05:36:35;9.57;;;2.90;;
15624;SDS011;7912;51.376;6.126;2023-02-24T05:39:06;5.70;;;2.30;;
15624;SDS011;7912;51.376;6.126;2023-02-24T05:41:39;6.43;;;2.60;;
15624;SDS011;7912;51.376;6.126;2023-02-24T05:44:11;10.43;;;2.43;;
15624;SDS011;7912;51.376;6.126;2023-02-24T05:46:44;5.83;;;2.67;;
15624;SDS011;7912;51.376;6.126;2023-02-24T05:51:50;6.77;;;2.83;;
15624;SDS011;7912;51.376;6.126;2023-02-24T05:54:30;7.70;;;2.60;;
15624;SDS011;7912;51.376;6.126;2023-02-24T05:57:06;5.33;;;2.60;;
15624;SDS011;7912;51.376;6.126;2023-02-24T05:59:42;7.37;;;2.50;;
15624;SDS011;7912;51.376;6.126;2023-02-24T06:02:11;6.70;;;3.00;;
15624;SDS011;7912;51.376;6.126;2023-02-24T06:04:41;7.80;;;2.90;;
15624;SDS011;7912;51.376;6.126;2023-02-24T06:07:23;9.43;;;2.87;;
15624;SDS011;7912;51.376;6.126;2023-02-24T06:09:59;7.77;;;2.93;;
15624;SDS011;7912;51.376;6.126;2023-02-24T06:12:30;4.17;;;2.33;;
15624;SDS011;7912;51.376;6.126;2023-02-24T06:15:00;5.93;;;2.83;;
15624;SDS011;7912;51.376;6.126;2023-02-24T06:17:33;5.93;;;2.53;;
15624;SDS011;7912;51.376;6.126;2023-02-24T06:20:00;6.47;;;2.70;;
15624;SDS011;7912;51.376;6.126;2023-02-24T06:22:38;10.50;;;3.13;;
15624;SDS011;7912;51.376;6.126;2023-02-24T06:25:08;5.73;;;2.87;;
15624;SDS011;7912;51.376;6.126;2023-02-24T06:27:37;8.83;;;2.90;;
15624;SDS011;7912;51.376;6.126;2023-02-24T06:30:04;10.27;;;3.23;;
15624;SDS011;7912;51.376;6.126;2023-02-24T06:32:35;5.93;;;3.10;;
15624;SDS011;7912;51.376;6.126;2023-02-24T06:35:03;7.73;;;3.17;;
15624;SDS011;7912;51.376;6.126;2023-02-24T06:37:31;8.30;;;2.73;;
15624;SDS011;7912;51.376;6.126;2023-02-24T06:39:58;6.50;;;2.77;;
15624;SDS011;7912;51.376;6.126;2023-02-24T06:42:26;8.50;;;2.80;;
15624;SDS011;7912;51.376;6.126;2023-02-24T06:44:54;8.27;;;2.67;;
15624;SDS011;7912;51.376;6.126;2023-02-24T06:47:21;5.67;;;2.70;;
15624;SDS011;7912;51.376;6.126;2023-02-24T06:49:48;6.50;;;2.73;;
15624;SDS011;7912;51.376;6.126;2023-02-24T06:52:16;6.20;;;2.80;;
15624;SDS011;7912;51.376;6.126;2023-02-24T06:54:46;8.43;;;2.87;;
15624;SDS011;7912;51.376;6.126;2023-02-24T06:57:15;6.37;;;2.70;;
15624;SDS011;7912;51.376;6.126;2023-02-24T06:59:43;9.60;;;2.83;;
15624;SDS011;7912;51.376;6.126;2023-02-24T07:02:11;8.03;;;3.33;;
15624;SDS011;7912;51.376;6.126;2023-02-24T07:04:39;8.90;;;2.97;;
15624;SDS011;7912;51.376;6.126;2023-02-24T07:07:09;5.47;;;2.97;;
15624;SDS011;7912;51.376;6.126;2023-02-24T07:09:40;5.77;;;2.60;;
15624;SDS011;7912;51.376;6.126;2023-02-24T07:12:08;9.03;;;2.90;;
15624;SDS011;7912;51.376;6.126;2023-02-24T07:14:36;10.00;;;3.23;;
15624;SDS011;7912;51.376;6.126;2023-02-24T07:17:06;6.17;;;2.70;;
15624;SDS011;7912;51.376;6.126;2023-02-24T07:19:34;8.40;;;2.97;;
15624;SDS011;7912;51.376;6.126;2023-02-24T07:22:02;7.63;;;2.87;;
15624;SDS011;7912;51.376;6.126;2023-02-24T07:24:32;8.00;;;2.73;;
15624;SDS011;7912;51.376;6.126;2023-02-24T07:27:12;8.40;;;2.73;;
15624;SDS011;7912;51.376;6.126;2023-02-24T07:29:49;9.47;;;3.37;;
15624;SDS011;7912;51.376;6.126;2023-02-24T07:32:19;8.77;;;2.73;;
15624;SDS011;7912;51.376;6.126;2023-02-24T07:34:51;10.70;;;3.10;;
15624;SDS011;7912;51.376;6.126;2023-02-24T07:37:21;7.60;;;3.00;;
15624;SDS011;7912;51.376;6.126;2023-02-24T07:39:57;7.73;;;3.03;;
15624;SDS011;7912;51.376;6.126;2023-02-24T07:42:24;9.77;;;2.70;;
15624;SDS011;7912;51.376;6.126;2023-02-24T07:49:05;7.33;;;2.43;;
15624;SDS011;7912;51.376;6.126;2023-02-24T07:51:35;6.87;;;2.87;;
15624;SDS011;7912;51.376;6.126;2023-02-24T07:54:03;7.93;;;3.30;;
15624;SDS011;7912;51.376;6.126;2023-02-24T07:56:31;8.27;;;3.17;;
15624;SDS011;7912;51.376;6.126;2023-02-24T07:59:02;7.37;;;3.00;;
15624;SDS011;7912;51.376;6.126;2023-02-24T08:01:34;6.83;;;3.30;;
15624;SDS011;7912;51.376;6.126;2023-02-24T08:04:10;4.70;;;2.70;;
15624;SDS011;7912;51.376;6.126;2023-02-24T08:06:44;6.40;;;2.83;;
15624;SDS011;7912;51.376;6.126;2023-02-24T08:09:17;6.73;;;3.07;;
15624;SDS011;7912;51.376;6.126;2023-02-24T08:11:54;8.00;;;3.27;;
15624;SDS011;7912;51.376;6.126;2023-02-24T08:14:23;7.33;;;3.30;;
15624;SDS011;7912;51.376;6.126;2023-02-24T08:21:22;8.63;;;3.50;;
15624;SDS011;7912;51.376;6.126;2023-02-24T08:23:52;8.77;;;3.27;;
15624;SDS011;7912;51.376;6.126;2023-02-24T08:26:21;7.80;;;3.23;;
15624;SDS011;7912;51.376;6.126;2023-02-24T08:28:53;7.07;;;3.27;;
15624;SDS011;7912;51.376;6.126;2023-02-24T08:31:21;6.00;;;2.97;;
15624;SDS011;7912;51.376;6.126;2023-02-24T08:33:50;9.90;;;3.10;;
15624;SDS011;7912;51.376;6.126;2023-02-24T08:36:21;9.93;;;3.33;;
15624;SDS011;7912;51.376;6.126;2023-02-24T08:38:51;7.73;;;3.00;;
15624;SDS011;7912;51.376;6.126;2023-02-24T08:41:19;8.47;;;3.03;;
15624;SDS011;7912;51.376;6.126;2023-02-24T08:43:54;7.00;;;2.80;;
15624;SDS011;7912;51.376;6.126;2023-02-24T08:46:22;5.40;;;2.93;;
15624;SDS011;7912;51.376;6.126;2023-02-24T08:48:58;7.20;;;2.73;;
15624;SDS011;7912;51.376;6.126;2023-02-24T08:51:36;6.40;;;3.20;;
15624;SDS011;7912;51.376;6.126;2023-02-24T08:54:10;6.03;;;3.00;;
15624;SDS011;7912;51.376;6.126;2023-02-24T09:00:03;8.67;;;3.13;;
15624;SDS011;7912;51.376;6.126;2023-02-24T09:02:32;7.23;;;3.10;;
15624;SDS011;7912;51.376;6.126;2023-02-24T09:05:06;8.20;;;2.80;;
15624;SDS011;7912;51.376;6.126;2023-02-24T09:07:40;5.53;;;2.60;;
15624;SDS011;7912;51.376;6.126;2023-02-24T09:10:13;9.47;;;2.90;;
15624;SDS011;7912;51.376;6.126;2023-02-24T09:12:44;10.33;;;2.77;;
15624;SDS011;7912;51.376;6.126;2023-02-24T09:15:12;7.80;;;2.63;;
15624;SDS011;7912;51.376;6.126;2023-02-24T09:17:43;7.90;;;2.83;;
15624;SDS011;7912;51.376;6.126;2023-02-24T09:20:13;8.73;;;3.13;;
15624;SDS011;7912;51.376;6.126;2023-02-24T09:22:53;8.40;;;2.77;;
15624;SDS011;7912;51.376;6.126;2023-02-24T09:25:35;5.63;;;2.53;;
15624;SDS011;7912;51.376;6.126;2023-02-24T09:28:15;10.67;;;2.77;;
15624;SDS011;7912;51.376;6.126;2023-02-24T09:33:31;7.60;;;3.00;;
15624;SDS011;7912;51.376;6.126;2023-02-24T09:36:06;5.70;;;2.73;;
15624;SDS011;7912;51.376;6.126;2023-02-24T09:38:42;7.47;;;2.83;;
15624;SDS011;7912;51.376;6.126;2023-02-24T09:52:39;7.37;;;3.13;;
15624;SDS011;7912;51.376;6.126;2023-02-24T10:01:31;7.10;;;2.80;;
15624;SDS011;7912;51.376;6.126;2023-02-24T10:07:16;7.87;;;3.10;;
15624;SDS011;7912;51.376;6.126;2023-02-24T10:12:46;8.87;;;2.87;;
15624;SDS011;7912;51.376;6.126;2023-02-24T10:15:21;10.90;;;2.83;;
15624;SDS011;7912;51.376;6.126;2023-02-24T10:21:01;5.13;;;2.30;;
15624;SDS011;7912;51.376;6.126;2023-02-24T10:24:02;8.67;;;2.80;;
15624;SDS011;7912;51.376;6.126;2023-02-24T10:26:50;8.93;;;3.23;;
15624;SDS011;7912;51.376;6.126;2023-02-24T10:35:00;9.93;;;3.10;;
15624;SDS011;7912;51.376;6.126;2023-02-24T10:37:28;8.60;;;2.60;;
15624;SDS011;7912;51.376;6.126;2023-02-24T10:39:59;8.97;;;3.30;;
15624;SDS011;7912;51.376;6.126;2023-02-24T10:42:36;8.63;;;3.23;;
15624;SDS011;7912;51.376;6.126;2023-02-24T10:45:22;7.17;;;3.13;;
15624;SDS011;7912;51.376;6.126;2023-02-24T10:48:05;7.73;;;3.50;;
15624;SDS011;7912;51.376;6.126;2023-02-24T10:50:41;8.77;;;3.53;;
15624;SDS011;7912;51.376;6.126;2023-02-24T10:53:23;12.53;;;3.77;;
15624;SDS011;7912;51.376;6.126;2023-02-24T10:56:23;7.40;;;3.30;;
15624;SDS011;7912;51.376;6.126;2023-02-24T10:59:00;11.67;;;3.20;;
15624;SDS011;7912;51.376;6.126;2023-02-24T11:01:54;7.10;;;3.33;;
15624;SDS011;7912;51.376;6.126;2023-02-24T11:04:59;10.30;;;3.50;;
15624;SDS011;7912;51.376;6.126;2023-02-24T11:08:04;7.77;;;3.57;;
15624;SDS011;7912;51.376;6.126;2023-02-24T11:11:15;6.00;;;3.17;;
15624;SDS011;7912;51.376;6.126;2023-02-24T11:13:51;7.50;;;3.63;;
15624;SDS011;7912;51.376;6.126;2023-02-24T11:16:47;9.80;;;3.20;;
15624;SDS011;7912;51.376;6.126;2023-02-24T11:19:49;7.00;;;3.70;;
15624;SDS011;7912;51.376;6.126;2023-02-24T11:22:37;8.87;;;3.40;;
15624;SDS011;7912;51.376;6.126;2023-02-24T11:25:23;10.40;;;3.80;;
15624;SDS011;7912;51.376;6.126;2023-02-24T11:28:20;8.80;;;3.33;;
15624;SDS011;7912;51.376;6.126;2023-02-24T11:37:42;8.07;;;3.50;;
15624;SDS011;7912;51.376;6.126;2023-02-24T11:40:23;7.40;;;3.13;;
15624;SDS011;7912;51.376;6.126;2023-02-24T11:45:51;12.50;;;3.97;;
15624;SDS011;7912;51.376;6.126;2023-02-24T11:48:31;7.70;;;3.43;;
15624;SDS011;7912;51.376;6.126;2023-02-24T11:54:04;8.47;;;3.80;;
15624;SDS011;7912;51.376;6.126;2023-02-24T11:56:39;6.60;;;3.30;;
15624;SDS011;7912;51.376;6.126;2023-02-24T11:59:16;8.30;;;3.00;;
15624;SDS011;7912;51.376;6.126;2023-02-24T12:02:36;8.77;;;4.10;;
15624;SDS011;7912;51.376;6.126;2023-02-24T12:05:24;9.83;;;3.63;;
15624;SDS011;7912;51.376;6.126;2023-02-24T12:08:08;8.00;;;3.63;;
15624;SDS011;7912;51.376;6.126;2023-02-24T12:11:06;7.97;;;3.50;;
15624;SDS011;7912;51.376;6.126;2023-02-24T12:13:51;10.00;;;3.67;;
15624;SDS011;7912;51.376;6.126;2023-02-24T12:16:34;9.47;;;3.70;;
15624;SDS011;7912;51.376;6.126;2023-02-24T12:21:54;10.20;;;3.93;;
15624;SDS011;7912;51.376;6.126;2023-02-24T12:24:31;10.93;;;4.37;;
15624;SDS011;7912;51.376;6.126;2023-02-24T12:27:05;10.30;;;4.83;;
15624;SDS011;7912;51.376;6.126;2023-02-24T12:36:33;10.17;;;4.43;;
15624;SDS011;7912;51.376;6.126;2023-02-24T12:39:50;8.90;;;4.40;;
15624;SDS011;7912;51.376;6.126;2023-02-24T12:59:37;9.37;;;4.50;;
15624;SDS011;7912;51.376;6.126;2023-02-24T13:02:18;10.83;;;5.33;;
15624;SDS011;7912;51.376;6.126;2023-02-24T13:05:30;9.87;;;5.70;;
15624;SDS011;7912;51.376;6.126;2023-02-24T13:19:41;12.70;;;6.60;;
15624;SDS011;7912;51.376;6.126;2023-02-24T13:27:40;8.37;;;6.03;;
15624;SDS011;7912;51.376;6.126;2023-02-24T13:30:31;12.27;;;6.50;;
15624;SDS011;7912;51.376;6.126;2023-02-24T13:33:22;10.30;;;5.73;;
15624;SDS011;7912;51.376;6.126;2023-02-24T13:36:06;9.27;;;5.80;;
15624;SDS011;7912;51.376;6.126;2023-02-24T13:39:03;8.87;;;6.23;;
15624;SDS011;7912;51.376;6.126;2023-02-24T13:48:05;13.53;;;6.27;;
15624;SDS011;7912;51.376;6.126;2023-02-24T13:57:24;11.13;;;6.50;;
15624;SDS011;7912;51.376;6.126;2023-02-24T14:03:17;9.53;;;7.00;;
15624;SDS011;7912;51.376;6.126;2023-02-24T14:05:49;12.17;;;6.90;;
15624;SDS011;7912;51.376;6.126;2023-02-24T14:08:19;10.37;;;6.63;;
15624;SDS011;7912;51.376;6.126;2023-02-24T14:10:54;9.90;;;7.00;;
15624;SDS011;7912;51.376;6.126;2023-02-24T14:13:26;10.53;;;6.90;;
15624;SDS011;7912;51.376;6.126;2023-02-24T14:16:05;9.93;;;7.10;;
15624;SDS011;7912;51.376;6.126;2023-02-24T14:18:50;12.47;;;8.07;;
15624;SDS011;7912;51.376;6.126;2023-02-24T14:21:35;9.83;;;6.90;;
15624;SDS011;7912;51.376;6.126;2023-02-24T14:24:23;8.87;;;6.90;;
15624;SDS011;7912;51.376;6.126;2023-02-24T14:26:57;10.43;;;6.93;;
15624;SDS011;7912;51.376;6.126;2023-02-24T14:29:27;11.43;;;7.47;;
15624;SDS011;7912;51.376;6.126;2023-02-24T14:32:14;9.20;;;7.20;;
15624;SDS011;7912;51.376;6.126;2023-02-24T14:34:53;9.20;;;7.53;;
15624;SDS011;7912;51.376;6.126;2023-02-24T14:37:22;12.87;;;8.03;;
15624;SDS011;7912;51.376;6.126;2023-02-24T14:39:56;9.03;;;7.47;;
15624;SDS011;7912;51.376;6.126;2023-02-24T14:42:31;12.83;;;7.50;;
15624;SDS011;7912;51.376;6.126;2023-02-24T14:44:58;8.07;;;6.93;;
15624;SDS011;7912;51.376;6.126;2023-02-24T14:47:26;9.60;;;7.70;;
15624;SDS011;7912;51.376;6.126;2023-02-24T14:49:56;10.93;;;7.77;;
15624;SDS011;7912;51.376;6.126;2023-02-24T14:52:40;9.90;;;8.03;;
15624;SDS011;7912;51.376;6.126;2023-02-24T14:55:23;10.30;;;8.77;;
15624;SDS011;7912;51.376;6.126;2023-02-24T14:58:31;13.20;;;9.07;;
15624;SDS011;7912;51.376;6.126;2023-02-24T15:00:53;14.77;;;9.47;;
15624;SDS011;7912;51.376;6.126;2023-02-24T15:03:44;11.40;;;9.47;;
15624;SDS011;7912;51.376;6.126;2023-02-24T15:06:21;10.07;;;9.03;;
15624;SDS011;7912;51.376;6.126;2023-02-24T15:08:57;9.87;;;8.83;;
15624;SDS011;7912;51.376;6.126;2023-02-24T15:11:30;12.00;;;9.33;;
15624;SDS011;7912;51.376;6.126;2023-02-24T15:14:02;10.27;;;8.83;;
15624;SDS011;7912;51.376;6.126;2023-02-24T15:16:42;11.50;;;8.07;;
15624;SDS011;7912;51.376;6.126;2023-02-24T15:19:25;9.27;;;8.30;;
15624;SDS011;7912;51.376;6.126;2023-02-24T15:22:02;9.73;;;7.90;;
15624;SDS011;7912;51.376;6.126;2023-02-24T15:24:44;10.77;;;7.50;;
15624;SDS011;7912;51.376;6.126;2023-02-24T15:29:39;8.77;;;6.93;;
15624;SDS011;7912;51.376;6.126;2023-02-24T15:32:13;9.63;;;6.63;;
15624;SDS011;7912;51.376;6.126;2023-02-24T15:34:45;7.60;;;6.73;;
15624;SDS011;7912;51.376;6.126;2023-02-24T15:37:14;8.73;;;6.90;;
15624;SDS011;7912;51.376;6.126;2023-02-24T15:40:15;8.50;;;6.73;;
15624;SDS011;7912;51.376;6.126;2023-02-24T15:42:51;8.23;;;6.10;;
15624;SDS011;7912;51.376;6.126;2023-02-24T15:45:27;8.50;;;6.20;;
15624;SDS011;7912;51.376;6.126;2023-02-24T15:47:56;9.03;;;6.23;;
15624;SDS011;7912;51.376;6.126;2023-02-24T15:50:26;8.30;;;6.20;;
15624;SDS011;7912;51.376;6.126;2023-02-24T15:52:57;8.10;;;5.63;;
15624;SDS011;7912;51.376;6.126;2023-02-24T15:55:29;7.80;;;6.40;;
15624;SDS011;7912;51.376;6.126;2023-02-24T15:57:59;8.10;;;6.17;;
15624;SDS011;7912;51.376;6.126;2023-02-24T16:01:01;7.30;;;5.33;;
15624;SDS011;7912;51.376;6.126;2023-02-24T16:03:29;9.70;;;5.43;;
15624;SDS011;7912;51.376;6.126;2023-02-24T16:06:02;10.33;;;5.20;;
15624;SDS011;7912;51.376;6.126;2023-02-24T16:13:18;7.60;;;5.00;;
15624;SDS011;7912;51.376;6.126;2023-02-24T16:15:50;9.37;;;4.23;;
15624;SDS011;7912;51.376;6.126;2023-02-24T16:18:20;8.97;;;4.17;;
15624;SDS011;7912;51.376;6.126;2023-02-24T16:20:50;9.03;;;4.17;;
15624;SDS011;7912;51.376;6.126;2023-02-24T16:23:22;7.00;;;3.40;;
15624;SDS011;7912;51.376;6.126;2023-02-24T16:25:55;9.00;;;3.70;;
15624;SDS011;7912;51.376;6.126;2023-02-24T16:28:25;7.17;;;3.20;;
15624;SDS011;7912;51.376;6.126;2023-02-24T16:30:52;9.20;;;3.70;;
15624;SDS011;7912;51.376;6.126;2023-02-24T16:33:20;8.53;;;3.53;;
15624;SDS011;7912;51.376;6.126;2023-02-24T16:35:49;9.80;;;4.03;;
15624;SDS011;7912;51.376;6.126;2023-02-24T16:38:21;6.80;;;3.33;;
15624;SDS011;7912;51.376;6.126;2023-02-24T16:40:53;5.27;;;3.00;;
15624;SDS011;7912;51.376;6.126;2023-02-24T16:43:21;10.83;;;3.73;;
15624;SDS011;7912;51.376;6.126;2023-02-24T16:45:56;8.47;;;2.80;;
15624;SDS011;7912;51.376;6.126;2023-02-24T16:48:40;8.90;;;3.10;;
15624;SDS011;7912;51.376;6.126;2023-02-24T16:55:28;10.30;;;2.97;;
15624;SDS011;7912;51.376;6.126;2023-02-24T16:58:13;5.53;;;2.70;;
15624;SDS011;7912;51.376;6.126;2023-02-24T17:00:55;8.73;;;2.97;;
15624;SDS011;7912;51.376;6.126;2023-02-24T17:03:50;8.37;;;2.60;;
15624;SDS011;7912;51.376;6.126;2023-02-24T17:06:19;8.00;;;3.13;;
15624;SDS011;7912;51.376;6.126;2023-02-24T17:08:49;9.00;;;2.80;;
15624;SDS011;7912;51.376;6.126;2023-02-24T17:11:17;8.17;;;3.17;;
15624;SDS011;7912;51.376;6.126;2023-02-24T17:13:48;7.47;;;2.80;;
15624;SDS011;7912;51.376;6.126;2023-02-24T17:16:15;10.30;;;3.07;;
15624;SDS011;7912;51.376;6.126;2023-02-24T17:18:43;13.40;;;3.90;;
15624;SDS011;7912;51.376;6.126;2023-02-24T17:21:11;9.00;;;2.90;;
15624;SDS011;7912;51.376;6.126;2023-02-24T17:23:40;8.73;;;2.57;;
15624;SDS011;7912;51.376;6.126;2023-02-24T17:26:12;7.93;;;2.70;;
15624;SDS011;7912;51.376;6.126;2023-02-24T17:28:41;6.57;;;2.47;;
15624;SDS011;7912;51.376;6.126;2023-02-24T17:31:09;8.00;;;2.50;;
15624;SDS011;7912;51.376;6.126;2023-02-24T17:33:36;10.07;;;3.20;;
15624;SDS011;7912;51.376;6.126;2023-02-24T17:36:03;7.80;;;2.77;;
15624;SDS011;7912;51.376;6.126;2023-02-24T17:38:31;6.20;;;2.40;;
15624;SDS011;7912;51.376;6.126;2023-02-24T17:40:58;10.67;;;2.90;;
15624;SDS011;7912;51.376;6.126;2023-02-24T17:43:28;8.53;;;2.80;;
15624;SDS011;7912;51.376;6.126;2023-02-24T17:45:55;5.50;;;2.40;;
15624;SDS011;7912;51.376;6.126;2023-02-24T17:48:22;9.17;;;2.90;;
15624;SDS011;7912;51.376;6.126;2023-02-24T17:50:50;7.63;;;2.50;;
15624;SDS011;7912;51.376;6.126;2023-02-24T17:53:17;6.83;;;2.70;;
15624;SDS011;7912;51.376;6.126;2023-02-24T17:55:44;6.73;;;2.77;;
15624;SDS011;7912;51.376;6.126;2023-02-24T17:58:29;9.67;;;3.17;;
15624;SDS011;7912;51.376;6.126;2023-02-24T18:00:57;10.17;;;3.40;;
15624;SDS011;7912;51.376;6.126;2023-02-24T18:03:28;6.47;;;2.53;;
15624;SDS011;7912;51.376;6.126;2023-02-24T18:06:00;9.87;;;2.97;;
15624;SDS011;7912;51.376;6.126;2023-02-24T18:08:37;10.40;;;2.90;;
15624;SDS011;7912;51.376;6.126;2023-02-24T18:11:06;7.63;;;2.50;;
15624;SDS011;7912;51.376;6.126;2023-02-24T18:13:35;7.40;;;3.40;;
15624;SDS011;7912;51.376;6.126;2023-02-24T18:16:06;8.97;;;2.90;;
15624;SDS011;7912;51.376;6.126;2023-02-24T18:18:40;8.07;;;3.20;;
15624;SDS011;7912;51.376;6.126;2023-02-24T18:24:34;9.67;;;3.20;;
15624;SDS011;7912;51.376;6.126;2023-02-24T18:27:02;5.33;;;2.70;;
15624;SDS011;7912;51.376;6.126;2023-02-24T18:29:30;6.50;;;2.47;;
15624;SDS011;7912;51.376;6.126;2023-02-24T18:31:57;4.17;;;1.60;;
15624;SDS011;7912;51.376;6.126;2023-02-24T18:34:25;4.60;;;1.80;;
15624;SDS011;7912;51.376;6.126;2023-02-24T18:36:52;6.30;;;1.70;;
15624;SDS011;7912;51.376;6.126;2023-02-24T18:39:19;4.97;;;1.93;;
15624;SDS011;7912;51.376;6.126;2023-02-24T18:41:47;5.40;;;2.17;;
15624;SDS011;7912;51.376;6.126;2023-02-24T18:44:16;6.20;;;3.20;;